Time;durP1;ratioP1;P1;durP2;ratioP2;P2;SDS_P1;SDS_P2;PMS_P1;PMS_P2;Temp;Humidity;BMP_temperature;BMP_pressure;BME280_temperature;BME280_humidity;BME280_pressure;Samples;Min_cycle;Max_cycle;Signal;HPM_P1;HPM_P2
2023/08/17 00:01:52;;;;;;;1.50;1.40;;;23.60;99.90;;;;;;5119376;27;20265;-76
2023/08/17 00:04:19;;;;;;;1.25;1.15;;;23.60;99.90;;;;;;5120877;27;20201;-77
2023/08/17 00:06:46;;;;;;;1.52;1.42;;;23.60;99.90;;;;;;5114388;27;20216;-77
2023/08/17 00:09:13;;;;;;;1.50;1.40;;;23.60;99.90;;;;;;5118388;27;20204;-77
2023/08/17 00:11:40;;;;;;;1.40;1.30;;;23.50;99.90;;;;;;5119268;27;20217;-76
2023/08/17 00:14:10;;;;;;;1.20;1.10;;;23.40;99.90;;;;;;5121019;27;20743;-77
2023/08/17 00:16:36;;;;;;;1.77;1.67;;;23.10;99.90;;;;;;5119667;27;20314;-76
2023/08/17 00:19:04;;;;;;;1.60;1.50;;;22.90;99.90;;;;;;5118687;27;20216;-77
2023/08/17 00:21:31;;;;;;;1.67;1.30;;;22.70;99.90;;;;;;5116170;27;20200;-77
2023/08/17 00:23:58;;;;;;;1.42;1.33;;;22.60;99.90;;;;;;5117976;27;20196;-76
2023/08/17 00:26:25;;;;;;;1.67;1.30;;;22.50;99.90;;;;;;5114070;27;20244;-76
2023/08/17 00:28:52;;;;;;;1.40;1.30;;;22.40;99.90;;;;;;5115824;27;20269;-76
2023/08/17 00:31:20;;;;;;;1.33;1.23;;;22.40;99.90;;;;;;5115320;27;23225;-77
2023/08/17 00:33:47;;;;;;;1.40;1.30;;;22.40;99.90;;;;;;5116738;27;20833;-77
2023/08/17 00:36:14;;;;;;;1.10;1.10;;;22.50;99.90;;;;;;5117856;27;20215;-77
2023/08/17 00:38:41;;;;;;;1.27;1.25;;;22.60;99.90;;;;;;5115808;27;20249;-77
2023/08/17 00:41:08;;;;;;;1.30;1.20;;;22.70;99.90;;;;;;5113499;27;20257;-77
2023/08/17 00:43:35;;;;;;;1.23;1.10;;;22.80;99.90;;;;;;5117103;27;20276;-76
2023/08/17 00:46:03;;;;;;;1.40;1.27;;;23.00;99.90;;;;;;5112452;27;20659;-77
2023/08/17 00:48:31;;;;;;;1.20;1.13;;;23.10;99.90;;;;;;5114869;27;20548;-76
2023/08/17 00:50:59;;;;;;;1.15;1.05;;;23.20;99.90;;;;;;5111166;27;20245;-77
2023/08/17 00:53:28;;;;;;;1.50;1.40;;;23.30;99.90;;;;;;5113663;27;20200;-76
2023/08/17 00:55:55;;;;;;;1.33;1.23;;;23.30;99.90;;;;;;5112908;27;20915;-76
2023/08/17 00:58:22;;;;;;;1.30;1.20;;;23.40;99.90;;;;;;5114207;27;20203;-77
2023/08/17 01:00:49;;;;;;;1.33;1.30;;;23.40;99.90;;;;;;5113878;28;20284;-77
2023/08/17 01:03:17;;;;;;;1.33;1.23;;;23.50;99.90;;;;;;5114210;28;20257;-77
2023/08/17 01:05:46;;;;;;;1.33;1.20;;;23.50;99.90;;;;;;5113050;28;20220;-78
2023/08/17 01:08:12;;;;;;;1.20;1.10;;;23.50;99.90;;;;;;5111862;28;20232;-77
2023/08/17 01:10:52;;;;;;;1.55;1.33;;;23.50;99.90;;;;;;5113728;28;20269;-77
2023/08/17 01:13:23;;;;;;;1.38;1.27;;;23.50;99.90;;;;;;5112970;28;20674;-77
2023/08/17 01:15:54;;;;;;;1.40;1.30;;;23.50;99.90;;;;;;5115033;28;20281;-77
2023/08/17 01:18:24;;;;;;;1.45;1.35;;;23.30;99.90;;;;;;5116762;27;20243;-77
2023/08/17 01:20:54;;;;;;;1.38;1.27;;;23.30;99.90;;;;;;5117766;27;20220;-77
2023/08/17 01:23:23;;;;;;;1.10;1.10;;;23.20;99.90;;;;;;5120191;27;20199;-76
2023/08/17 01:25:50;;;;;;;1.63;1.50;;;23.10;99.90;;;;;;5123369;27;20821;-78
2023/08/17 01:28:17;;;;;;;1.10;1.10;;;23.10;99.90;;;;;;5120869;27;20192;-77
2023/08/17 01:30:49;;;;;;;1.38;1.27;;;23.10;99.90;;;;;;5118356;27;20205;-76
2023/08/17 01:33:23;;;;;;;1.35;1.35;;;23.10;99.90;;;;;;5116235;27;20200;-76
2023/08/17 01:36:01;;;;;;;0.98;0.98;;;23.10;99.90;;;;;;5122505;27;20239;-77
2023/08/17 01:38:31;;;;;;;1.42;1.33;;;23.10;99.90;;;;;;5120102;27;20251;-77
2023/08/17 01:40:59;;;;;;;0.90;0.90;;;23.10;99.90;;;;;;5119814;27;20811;-77
2023/08/17 01:43:27;;;;;;;1.00;1.00;;;22.90;99.90;;;;;;5119230;27;20204;-76
2023/08/17 01:45:54;;;;;;;1.10;1.10;;;22.80;99.90;;;;;;5116385;27;20224;-77
2023/08/17 01:48:20;;;;;;;1.45;1.35;;;22.80;99.90;;;;;;5118230;27;20197;-76
2023/08/17 01:50:47;;;;;;;1.08;0.98;;;22.80;99.90;;;;;;5121891;27;20646;-76
2023/08/17 01:53:14;;;;;;;1.10;1.00;;;22.80;99.90;;;;;;5118625;27;20208;-77
2023/08/17 01:55:43;;;;;;;1.02;0.93;;;22.90;99.90;;;;;;5120006;27;20656;-77
2023/08/17 01:58:10;;;;;;;1.10;1.10;;;22.90;99.90;;;;;;5117219;27;20239;-76
2023/08/17 02:00:37;;;;;;;1.10;1.00;;;23.00;99.90;;;;;;5119174;27;20208;-77
2023/08/17 02:03:04;;;;;;;0.90;0.90;;;23.00;99.90;;;;;;5117503;27;20200;-77
2023/08/17 02:05:31;;;;;;;1.30;1.20;;;23.10;99.90;;;;;;5118718;27;20270;-76
2023/08/17 02:07:58;;;;;;;1.30;1.20;;;23.10;99.90;;;;;;5123703;27;20300;-76
2023/08/17 02:10:25;;;;;;;1.13;1.13;;;23.10;99.90;;;;;;5116409;27;20197;-77
2023/08/17 02:12:53;;;;;;;1.10;1.10;;;23.10;99.90;;;;;;5121290;27;20204;-77
2023/08/17 02:15:20;;;;;;;1.20;1.20;;;22.90;99.90;;;;;;5120291;27;20255;-76
2023/08/17 02:17:47;;;;;;;1.27;1.10;;;22.90;99.90;;;;;;5118225;27;20244;-77
2023/08/17 02:20:14;;;;;;;2.15;1.13;;;22.80;99.90;;;;;;5115816;27;20193;-77
2023/08/17 02:22:41;;;;;;;1.40;1.30;;;22.80;99.90;;;;;;5123577;27;20239;-76
2023/08/17 02:25:09;;;;;;;1.30;1.20;;;22.80;99.90;;;;;;5120281;27;20284;-76
2023/08/17 02:27:36;;;;;;;1.10;1.10;;;22.80;99.90;;;;;;5121903;27;20304;-77
2023/08/17 02:30:05;;;;;;;1.10;1.10;;;22.80;99.90;;;;;;5121725;27;20245;-77
2023/08/17 02:32:32;;;;;;;1.15;1.15;;;22.70;99.90;;;;;;5118036;27;20553;-77
2023/08/17 02:34:59;;;;;;;1.10;1.10;;;22.70;99.90;;;;;;5117781;27;20263;-78
2023/08/17 02:37:26;;;;;;;1.25;1.20;;;22.60;99.90;;;;;;5115503;27;20213;-76
2023/08/17 02:39:52;;;;;;;1.33;1.23;;;22.60;99.90;;;;;;5118721;27;20200;-78
2023/08/17 02:42:19;;;;;;;0.95;0.90;;;22.50;99.90;;;;;;5119077;27;20223;-76
2023/08/17 02:44:46;;;;;;;1.10;1.10;;;22.50;99.90;;;;;;5116042;27;20204;-77
2023/08/17 02:47:15;;;;;;;1.23;1.13;;;22.40;99.90;;;;;;5119102;27;20231;-76
2023/08/17 02:49:41;;;;;;;1.30;1.10;;;22.40;99.90;;;;;;5119862;27;20193;-76
2023/08/17 02:52:08;;;;;;;1.30;1.20;;;22.30;99.90;;;;;;5117026;27;20880;-77
2023/08/17 02:54:35;;;;;;;1.30;1.20;;;22.30;99.90;;;;;;5118695;27;20196;-75
2023/08/17 02:57:02;;;;;;;1.10;1.00;;;22.30;99.90;;;;;;5121216;27;20854;-76
2023/08/17 02:59:29;;;;;;;1.45;1.35;;;22.40;99.90;;;;;;5114043;27;20249;-77
2023/08/17 03:01:57;;;;;;;1.17;1.10;;;22.40;99.90;;;;;;5118264;27;20254;-76
2023/08/17 03:04:25;;;;;;;2.03;1.20;;;22.40;99.90;;;;;;5114192;27;20204;-77
2023/08/17 03:06:52;;;;;;;1.33;1.23;;;22.40;99.90;;;;;;5114427;27;20265;-77
2023/08/17 03:09:19;;;;;;;1.38;1.17;;;22.40;99.90;;;;;;5112236;27;20193;-77
2023/08/17 03:11:46;;;;;;;1.20;1.08;;;22.30;99.90;;;;;;5120428;27;20235;-76
2023/08/17 03:14:13;;;;;;;1.63;1.10;;;22.30;99.90;;;;;;5123369;27;20231;-76
2023/08/17 03:16:40;;;;;;;1.13;1.13;;;22.30;99.90;;;;;;5117144;27;20282;-77
2023/08/17 03:19:07;;;;;;;1.30;1.10;;;22.30;99.90;;;;;;5115936;27;20196;-76
2023/08/17 03:21:36;;;;;;;1.02;1.02;;;22.30;99.90;;;;;;5118722;27;20200;-76
2023/08/17 03:24:03;;;;;;;1.20;1.10;;;22.30;99.90;;;;;;5116566;27;20232;-77
2023/08/17 03:26:30;;;;;;;1.02;1.02;;;22.20;99.90;;;;;;5118006;27;20227;-77
2023/08/17 03:28:57;;;;;;;1.00;1.00;;;22.20;99.90;;;;;;5124080;27;20260;-76
2023/08/17 03:31:24;;;;;;;1.33;1.20;;;22.20;99.90;;;;;;5113263;27;20201;-77
2023/08/17 03:33:51;;;;;;;1.30;1.20;;;22.10;99.90;;;;;;5119053;27;20228;-76
2023/08/17 03:36:17;;;;;;;1.70;1.10;;;22.10;99.90;;;;;;5114804;27;20865;-78
2023/08/17 03:38:46;;;;;;;2.15;1.10;;;22.10;99.90;;;;;;5119602;27;20357;-76
2023/08/17 03:41:13;;;;;;;1.00;1.00;;;22.10;99.90;;;;;;5119759;27;20199;-77
2023/08/17 03:43:40;;;;;;;1.17;1.10;;;22.10;99.90;;;;;;5116666;27;20231;-76
2023/08/17 03:46:07;;;;;;;1.27;1.20;;;22.10;99.90;;;;;;5116768;27;20956;-77
2023/08/17 03:48:34;;;;;;;1.48;1.27;;;22.10;99.90;;;;;;5123297;27;20240;-76
2023/08/17 03:51:01;;;;;;;1.10;1.10;;;22.10;99.90;;;;;;5118039;27;20249;-77
2023/08/17 03:53:28;;;;;;;1.13;1.02;;;22.00;99.90;;;;;;5118001;27;20211;-78
2023/08/17 03:55:56;;;;;;;2.20;1.00;;;22.00;99.90;;;;;;5119074;27;20247;-76
2023/08/17 03:58:26;;;;;;;0.98;0.98;;;22.00;99.90;;;;;;5116425;27;20228;-76
2023/08/17 04:00:54;;;;;;;1.88;1.33;;;21.90;99.90;;;;;;5115404;27;20199;-78
2023/08/17 04:03:21;;;;;;;2.35;1.23;;;21.90;99.90;;;;;;5117954;27;20249;-76
2023/08/17 04:05:47;;;;;;;1.27;1.25;;;21.90;99.90;;;;;;5118825;27;20216;-77
2023/08/17 04:08:14;;;;;;;1.25;1.15;;;21.90;99.90;;;;;;5118886;27;20237;-77
2023/08/17 04:10:41;;;;;;;1.20;1.20;;;21.90;99.90;;;;;;5119512;27;20189;-78
2023/08/17 04:13:10;;;;;;;1.88;1.27;;;21.90;99.90;;;;;;5118573;27;20197;-77
2023/08/17 04:15:37;;;;;;;1.20;1.20;;;22.00;99.90;;;;;;5117265;27;20291;-78
2023/08/17 04:18:04;;;;;;;1.27;1.17;;;22.00;99.90;;;;;;5113221;27;20312;-78
2023/08/17 04:20:31;;;;;;;1.50;1.40;;;22.00;99.90;;;;;;5117238;27;20212;-78
2023/08/17 04:22:58;;;;;;;1.30;1.20;;;22.00;99.90;;;;;;5112872;27;20257;-76
2023/08/17 04:25:25;;;;;;;0.85;0.85;;;21.90;99.90;;;;;;5112268;27;20626;-77
2023/08/17 04:27:52;;;;;;;1.63;1.52;;;21.90;99.90;;;;;;5119848;27;20287;-77
2023/08/17 04:30:20;;;;;;;1.25;1.10;;;21.90;99.90;;;;;;5113586;27;20197;-78
2023/08/17 04:32:51;;;;;;;1.05;1.05;;;21.80;99.90;;;;;;5114822;27;20197;-76
2023/08/17 04:35:19;;;;;;;1.30;1.13;;;21.80;99.90;;;;;;5116808;27;20287;-77
2023/08/17 04:37:46;;;;;;;1.38;1.27;;;21.80;99.90;;;;;;5112044;27;20862;-76
2023/08/17 04:40:14;;;;;;;1.95;1.30;;;21.80;99.90;;;;;;5116673;27;20287;-77
2023/08/17 04:42:40;;;;;;;1.15;1.15;;;21.80;99.90;;;;;;5118607;27;20262;-77
2023/08/17 04:45:08;;;;;;;1.25;1.10;;;21.80;99.90;;;;;;5116366;27;20220;-76
2023/08/17 04:47:37;;;;;;;1.45;1.20;;;21.70;99.90;;;;;;5118998;27;20249;-76
2023/08/17 04:50:04;;;;;;;1.25;1.15;;;21.60;99.90;;;;;;5120747;27;20224;-77
2023/08/17 04:52:31;;;;;;;1.00;1.00;;;21.60;99.90;;;;;;5119386;27;20223;-77
2023/08/17 04:54:58;;;;;;;1.20;1.10;;;21.60;99.90;;;;;;5111257;27;20251;-76
2023/08/17 04:57:26;;;;;;;1.30;1.20;;;21.60;99.90;;;;;;5120700;27;20860;-77
2023/08/17 04:59:53;;;;;;;1.23;1.13;;;21.70;99.90;;;;;;5123555;27;20195;-77
2023/08/17 05:02:19;;;;;;;1.40;1.30;;;21.70;99.90;;;;;;5117012;27;20274;-76
2023/08/17 05:04:48;;;;;;;1.10;1.10;;;21.60;99.90;;;;;;5112710;28;20648;-77
2023/08/17 05:07:15;;;;;;;1.48;1.38;;;21.60;99.90;;;;;;5116346;27;20689;-77
2023/08/17 05:09:42;;;;;;;1.65;1.55;;;21.60;99.90;;;;;;5118234;28;20232;-76
2023/08/17 05:12:09;;;;;;;1.30;1.20;;;21.70;99.90;;;;;;5121502;28;20762;-77
2023/08/17 05:14:36;;;;;;;1.50;1.40;;;21.70;99.90;;;;;;5117515;28;20301;-78
2023/08/17 05:17:03;;;;;;;1.45;1.30;;;21.90;99.90;;;;;;5114439;28;20220;-76
2023/08/17 05:19:30;;;;;;;2.45;1.55;;;22.00;99.90;;;;;;5116189;28;20249;-77
2023/08/17 05:21:59;;;;;;;1.33;1.20;;;22.20;99.90;;;;;;5117101;28;20195;-77
2023/08/17 05:24:26;;;;;;;1.33;1.30;;;22.30;99.90;;;;;;5112498;28;20232;-77
2023/08/17 05:26:53;;;;;;;1.42;1.33;;;22.60;99.90;;;;;;5114483;28;20247;-77
2023/08/17 05:29:20;;;;;;;1.50;1.40;;;22.90;99.90;;;;;;5114170;28;20189;-77
2023/08/17 05:31:47;;;;;;;1.30;1.20;;;23.10;99.90;;;;;;5119535;28;20243;-76
2023/08/17 05:34:13;;;;;;;1.17;1.10;;;23.30;99.90;;;;;;5117623;28;20669;-76
2023/08/17 05:36:40;;;;;;;1.33;1.30;;;23.30;99.90;;;;;;5116532;28;20212;-79
2023/08/17 05:39:09;;;;;;;2.33;1.40;;;23.40;99.90;;;;;;5121480;27;20208;-79
2023/08/17 05:41:36;;;;;;;1.42;1.33;;;23.60;99.90;;;;;;5121078;28;20230;-77
2023/08/17 05:44:03;;;;;;;1.30;1.30;;;23.60;99.90;;;;;;5122682;28;20224;-80
2023/08/17 05:46:30;;;;;;;2.03;1.17;;;23.90;99.90;;;;;;5116211;28;20254;-79
2023/08/17 05:48:58;;;;;;;1.77;1.50;;;24.20;99.90;;;;;;5111334;28;20193;-77
2023/08/17 05:51:25;;;;;;;1.88;1.40;;;24.50;99.90;;;;;;5120106;27;20203;-79
2023/08/17 05:53:52;;;;;;;1.23;1.13;;;24.70;99.90;;;;;;5118073;27;20211;-77
2023/08/17 05:56:20;;;;;;;1.20;1.08;;;24.90;99.90;;;;;;5119258;28;20224;-78
2023/08/17 05:58:47;;;;;;;1.40;1.30;;;24.90;99.90;;;;;;5122634;28;20752;-77
2023/08/17 06:01:15;;;;;;;1.42;1.27;;;25.00;99.90;;;;;;5120287;28;20262;-78
2023/08/17 06:03:42;;;;;;;1.13;1.02;;;24.90;99.90;;;;;;5118283;27;20200;-77
2023/08/17 06:06:11;;;;;;;1.50;1.40;;;24.80;99.90;;;;;;5129705;27;20258;-78
2023/08/17 06:08:38;;;;;;;1.67;1.40;;;25.10;99.90;;;;;;5125207;27;20185;-79
2023/08/17 06:11:05;;;;;;;1.30;1.20;;;25.30;99.90;;;;;;5120597;27;20254;-78
2023/08/17 06:14:16;;;;;;;1.60;1.50;;;25.60;99.90;;;;;;5120221;27;20189;-78
2023/08/17 06:16:51;;;;;;;1.63;1.40;;;25.50;99.90;;;;;;5126247;27;20216;-78
2023/08/17 06:19:18;;;;;;;2.80;1.73;;;25.30;99.90;;;;;;5131489;27;20232;-78
2023/08/17 06:21:45;;;;;;;1.70;1.60;;;25.20;99.90;;;;;;5124108;27;20755;-78
2023/08/17 06:24:12;;;;;;;1.50;1.40;;;25.00;99.90;;;;;;5129255;27;20189;-78
2023/08/17 06:26:39;;;;;;;1.70;1.60;;;24.80;99.90;;;;;;5118067;27;20212;-78
2023/08/17 06:29:06;;;;;;;1.60;1.50;;;24.80;99.90;;;;;;5114455;27;20307;-77
2023/08/17 06:31:33;;;;;;;1.50;1.40;;;24.70;99.90;;;;;;5116804;27;20232;-77
2023/08/17 06:34:01;;;;;;;1.77;1.50;;;24.70;99.90;;;;;;5121371;27;20200;-78
2023/08/17 06:36:32;;;;;;;1.38;1.27;;;24.80;99.90;;;;;;5117409;27;20287;-77
2023/08/17 06:38:59;;;;;;;1.70;1.48;;;24.80;99.90;;;;;;5121806;27;20212;-78
2023/08/17 06:41:26;;;;;;;2.28;1.48;;;25.00;99.90;;;;;;5120595;27;20253;-77
2023/08/17 06:43:53;;;;;;;1.92;1.63;;;25.00;99.90;;;;;;5123208;27;20222;-79
2023/08/17 06:46:20;;;;;;;1.48;1.38;;;25.00;99.90;;;;;;5122845;27;20225;-77
2023/08/17 06:48:47;;;;;;;1.70;1.60;;;25.20;99.90;;;;;;5118080;27;20196;-78
2023/08/17 06:51:15;;;;;;;1.60;1.50;;;25.30;99.90;;;;;;5120440;27;20199;-79
2023/08/17 06:53:42;;;;;;;2.28;1.63;;;25.30;99.90;;;;;;5124600;27;20695;-79
2023/08/17 06:56:10;;;;;;;1.77;1.50;;;25.40;99.90;;;;;;5123446;27;20605;-77
2023/08/17 06:58:37;;;;;;;1.70;1.60;;;25.40;99.90;;;;;;5120383;27;20252;-78
2023/08/17 07:01:04;;;;;;;2.10;1.90;;;25.30;99.90;;;;;;5118779;27;20224;-77
2023/08/17 07:03:31;;;;;;;1.63;1.50;;;25.30;99.90;;;;;;5116188;27;20565;-77
2023/08/17 07:05:58;;;;;;;1.70;1.60;;;25.30;99.90;;;;;;5119706;27;20212;-78
2023/08/17 07:08:26;;;;;;;1.67;1.58;;;25.50;99.90;;;;;;5121491;27;20206;-77
2023/08/17 07:10:53;;;;;;;2.50;1.77;;;25.50;99.90;;;;;;5122203;27;20204;-77
2023/08/17 07:13:20;;;;;;;3.45;1.70;;;25.50;99.90;;;;;;5123410;27;20272;-77
2023/08/17 07:15:47;;;;;;;1.75;1.65;;;25.50;99.90;;;;;;5123170;27;20223;-78
2023/08/17 07:18:14;;;;;;;2.25;1.40;;;25.60;99.90;;;;;;5118076;27;20253;-76
2023/08/17 07:20:41;;;;;;;1.90;1.55;;;25.80;99.90;;;;;;5118293;27;20201;-78
2023/08/17 07:23:08;;;;;;;1.50;1.40;;;25.70;99.90;;;;;;5125547;27;20248;-77
2023/08/17 07:25:36;;;;;;;1.80;1.70;;;25.80;99.90;;;;;;5121910;27;20255;-77
2023/08/17 07:28:03;;;;;;;2.05;1.85;;;26.00;99.90;;;;;;5122938;27;20197;-77
2023/08/17 07:30:31;;;;;;;1.92;1.70;;;26.10;99.90;;;;;;5124206;27;20252;-77
2023/08/17 07:32:57;;;;;;;2.85;1.90;;;26.40;99.90;;;;;;5120632;27;20694;-77
2023/08/17 07:35:24;;;;;;;1.83;1.70;;;26.60;99.90;;;;;;5119383;27;20228;-78
2023/08/17 07:37:51;;;;;;;1.67;1.58;;;26.80;99.90;;;;;;5122520;27;20272;-77
2023/08/17 07:40:18;;;;;;;1.65;1.55;;;26.90;99.90;;;;;;5122881;27;20773;-78
2023/08/17 07:42:48;;;;;;;1.63;1.52;;;26.90;99.90;;;;;;5116959;27;20728;-77
2023/08/17 07:45:15;;;;;;;1.70;1.60;;;27.20;99.90;;;;;;5122653;27;20220;-78
2023/08/17 07:47:41;;;;;;;3.30;1.75;;;27.40;99.90;;;;;;5122327;27;20200;-76
2023/08/17 07:50:09;;;;;;;2.83;1.98;;;27.50;99.90;;;;;;5122617;27;20196;-79
2023/08/17 07:52:36;;;;;;;2.03;1.85;;;27.60;99.90;;;;;;5117618;27;20239;-77
2023/08/17 07:55:03;;;;;;;2.45;1.75;;;27.60;99.90;;;;;;5115572;27;20243;-78
2023/08/17 07:57:30;;;;;;;2.20;2.00;;;27.50;99.90;;;;;;5119053;27;20208;-77
2023/08/17 07:59:59;;;;;;;4.22;1.88;;;27.00;99.90;;;;;;5117630;27;20286;-77
2023/08/17 08:02:26;;;;;;;2.60;1.77;;;26.50;99.90;;;;;;5119293;27;20305;-77
2023/08/17 08:04:53;;;;;;;1.90;1.70;;;26.20;99.90;;;;;;5111569;27;20240;-77
2023/08/17 08:07:19;;;;;;;2.28;1.70;;;26.30;99.90;;;;;;5117390;27;20216;-77
2023/08/17 08:09:46;;;;;;;2.72;1.52;;;26.30;99.90;;;;;;5116260;27;20192;-77
2023/08/17 08:12:13;;;;;;;2.20;1.70;;;26.40;99.90;;;;;;5116732;27;20223;-76
2023/08/17 08:14:40;;;;;;;2.08;1.60;;;26.40;99.90;;;;;;5114896;27;20260;-77
2023/08/17 08:17:08;;;;;;;1.80;1.70;;;26.70;99.90;;;;;;5118949;27;20232;-77
2023/08/17 08:19:36;;;;;;;2.78;2.20;;;27.10;99.90;;;;;;5111726;27;20296;-78
2023/08/17 08:22:03;;;;;;;1.95;1.85;;;27.40;99.90;;;;;;5115827;27;20197;-77
2023/08/17 08:24:33;;;;;;;3.28;2.20;;;27.50;99.90;;;;;;5120167;27;20211;-78
2023/08/17 08:27:01;;;;;;;1.73;1.63;;;27.40;99.90;;;;;;5118069;27;20223;-78
2023/08/17 08:29:28;;;;;;;2.58;1.80;;;27.20;99.90;;;;;;5115758;27;20804;-77
2023/08/17 08:31:57;;;;;;;2.28;1.95;;;27.20;99.90;;;;;;5118820;27;21268;-78
2023/08/17 08:34:25;;;;;;;2.10;1.90;;;27.40;99.90;;;;;;5115696;27;20897;-76
2023/08/17 08:36:52;;;;;;;3.05;1.88;;;27.80;99.90;;;;;;5117172;27;20709;-76
2023/08/17 08:39:19;;;;;;;2.00;1.90;;;28.30;99.90;;;;;;5113853;27;20212;-78
2023/08/17 08:41:46;;;;;;;2.55;2.00;;;28.60;99.90;;;;;;5116343;27;20200;-77
2023/08/17 08:44:13;;;;;;;1.95;1.70;;;28.90;99.90;;;;;;5119174;27;20234;-78
2023/08/17 08:46:41;;;;;;;2.05;1.95;;;29.40;99.90;;;;;;5117181;27;20228;-77
2023/08/17 08:49:12;;;;;;;2.22;2.03;;;29.60;99.90;;;;;;5116384;27;20200;-77
2023/08/17 08:51:47;;;;;;;2.10;2.00;;;29.80;99.90;;;;;;5112236;27;20861;-77
2023/08/17 08:54:19;;;;;;;2.00;1.80;;;30.10;99.90;;;;;;5119254;27;20238;-76
2023/08/17 08:56:47;;;;;;;2.38;1.95;;;30.40;99.90;;;;;;5112428;27;20763;-77
2023/08/17 08:59:14;;;;;;;2.05;1.90;;;30.30;99.90;;;;;;5117510;27;20212;-77
2023/08/17 09:01:41;;;;;;;2.30;2.10;;;30.20;99.90;;;;;;5120769;28;20272;-77
2023/08/17 09:04:08;;;;;;;2.05;1.88;;;30.30;99.90;;;;;;5114322;28;20201;-76
2023/08/17 09:06:36;;;;;;;1.95;1.75;;;30.50;99.90;;;;;;5112365;28;20269;-76
2023/08/17 09:09:06;;;;;;;2.15;1.95;;;30.30;99.90;;;;;;5117994;28;20192;-77
2023/08/17 09:11:33;;;;;;;2.47;1.67;;;30.00;99.90;;;;;;5116430;28;20626;-77
2023/08/17 09:14:00;;;;;;;1.77;1.65;;;29.90;99.90;;;;;;5117647;28;20677;-77
2023/08/17 09:16:28;;;;;;;2.10;1.90;;;29.90;99.90;;;;;;5115930;28;20655;-76
2023/08/17 09:18:55;;;;;;;3.25;1.77;;;29.90;99.90;;;;;;5116872;28;20245;-76
2023/08/17 09:21:23;;;;;;;2.10;1.90;;;30.00;99.90;;;;;;5117333;28;20216;-77
2023/08/17 09:23:54;;;;;;;1.67;1.58;;;29.90;99.90;;;;;;5115043;28;20292;-78
2023/08/17 09:26:23;;;;;;;2.63;1.70;;;29.80;99.90;;;;;;5118347;28;20212;-78
2023/08/17 09:28:51;;;;;;;3.10;1.90;;;29.90;99.90;;;;;;5117638;28;20689;-78
2023/08/17 09:31:21;;;;;;;2.05;1.95;;;30.10;99.90;;;;;;5120718;28;20199;-77
2023/08/17 09:33:51;;;;;;;2.25;1.90;;;30.50;99.90;;;;;;5119282;28;20232;-78
2023/08/17 09:36:22;;;;;;;1.92;1.83;;;30.70;99.90;;;;;;5114439;28;20252;-77
2023/08/17 09:38:50;;;;;;;1.70;1.60;;;30.50;99.90;;;;;;5115191;27;20210;-76
2023/08/17 09:41:17;;;;;;;1.60;1.50;;;30.20;99.90;;;;;;5116904;27;20563;-77
2023/08/17 09:43:46;;;;;;;1.75;1.65;;;30.30;99.90;;;;;;5124984;27;20285;-76
2023/08/17 09:46:13;;;;;;;1.88;1.70;;;30.30;99.90;;;;;;5119882;27;20251;-78
2023/08/17 09:48:41;;;;;;;1.95;1.85;;;30.10;99.90;;;;;;5122858;27;20224;-77
2023/08/17 09:51:08;;;;;;;2.00;1.90;;;30.00;99.90;;;;;;5116542;27;20800;-77
2023/08/17 09:53:37;;;;;;;1.60;1.50;;;30.00;99.90;;;;;;5122621;27;20208;-77
2023/08/17 09:56:08;;;;;;;1.63;1.52;;;30.00;99.90;;;;;;5121887;27;20753;-77
2023/08/17 09:58:35;;;;;;;1.90;1.55;;;30.00;99.90;;;;;;5123257;27;20626;-78
2023/08/17 10:01:05;;;;;;;1.80;1.70;;;30.30;99.90;;;;;;5123257;27;20845;-77
2023/08/17 10:03:34;;;;;;;2.08;1.98;;;30.50;99.90;;;;;;5118787;27;20659;-76
2023/08/17 10:06:06;;;;;;;2.72;1.60;;;30.50;99.90;;;;;;5121096;27;20316;-77
2023/08/17 10:08:37;;;;;;;1.50;1.40;;;30.30;99.90;;;;;;5113751;27;20201;-76
2023/08/17 10:11:08;;;;;;;2.53;1.98;;;30.30;99.90;;;;;;5118105;27;21261;-77
2023/08/17 10:13:40;;;;;;;1.70;1.60;;;30.70;99.90;;;;;;5120574;27;20201;-79
2023/08/17 10:16:14;;;;;;;1.70;1.60;;;31.10;99.90;;;;;;5120055;27;20247;-77
2023/08/17 10:18:46;;;;;;;2.58;1.98;;;31.20;99.90;;;;;;5118637;27;20666;-77
2023/08/17 10:21:18;;;;;;;1.98;1.88;;;31.20;99.90;;;;;;5120703;27;20266;-76
2023/08/17 10:23:46;;;;;;;1.75;1.65;;;31.30;99.90;;;;;;5115232;27;20689;-77
2023/08/17 10:26:13;;;;;;;2.83;2.15;;;31.10;99.90;;;;;;5115137;27;20589;-77
2023/08/17 10:28:41;;;;;;;2.30;2.10;;;30.90;99.90;;;;;;5113196;27;20254;-77
2023/08/17 10:31:11;;;;;;;1.80;1.70;;;30.90;99.90;;;;;;5115870;27;20189;-78
2023/08/17 10:33:41;;;;;;;1.92;1.83;;;30.80;99.90;;;;;;5115643;27;20204;-79
2023/08/17 10:36:09;;;;;;;2.42;2.22;;;30.90;99.90;;;;;;5116148;27;20221;-77
2023/08/17 10:38:36;;;;;;;2.00;1.90;;;30.80;99.90;;;;;;5112082;27;20310;-78
2023/08/17 10:41:10;;;;;;;2.00;1.70;;;30.50;99.90;;;;;;5120363;27;20280;-77
2023/08/17 10:43:54;;;;;;;2.20;2.00;;;30.50;99.90;;;;;;5118801;27;20671;-77
2023/08/17 10:46:32;;;;;;;2.15;2.05;;;30.30;99.90;;;;;;5114380;27;20220;-79
2023/08/17 10:49:03;;;;;;;2.42;2.22;;;30.40;99.90;;;;;;5110869;27;20232;-77
2023/08/17 10:51:30;;;;;;;1.75;1.65;;;30.30;99.90;;;;;;5111709;27;20215;-77
2023/08/17 10:54:00;;;;;;;2.30;2.10;;;30.30;99.90;;;;;;5112104;27;20673;-78
2023/08/17 10:56:28;;;;;;;3.85;2.20;;;30.50;99.90;;;;;;5112208;27;20787;-77
2023/08/17 10:58:56;;;;;;;1.75;1.65;;;30.40;99.90;;;;;;5117179;27;20303;-77
2023/08/17 11:01:35;;;;;;;2.33;2.17;;;30.70;99.90;;;;;;5119551;27;20723;-77
2023/08/17 11:04:17;;;;;;;2.85;1.85;;;30.90;99.90;;;;;;5122897;27;20204;-76
2023/08/17 11:06:44;;;;;;;2.00;1.90;;;30.90;99.90;;;;;;5123954;27;20225;-78
2023/08/17 11:09:12;;;;;;;2.10;2.00;;;30.90;99.90;;;;;;5125062;27;20704;-77
2023/08/17 11:11:39;;;;;;;1.88;1.77;;;30.90;99.90;;;;;;5120282;27;20207;-78
2023/08/17 11:14:06;;;;;;;1.83;1.70;;;30.90;99.90;;;;;;5114022;27;20208;-78
2023/08/17 11:16:34;;;;;;;2.05;1.90;;;31.00;99.90;;;;;;5112272;27;20272;-77
2023/08/17 11:19:01;;;;;;;2.22;2.03;;;31.10;99.90;;;;;;5114147;27;20291;-78
2023/08/17 11:21:28;;;;;;;1.73;1.63;;;30.80;99.90;;;;;;5120111;27;20303;-77
2023/08/17 11:23:59;;;;;;;1.80;1.70;;;31.10;99.90;;;;;;5119720;27;20189;-77
2023/08/17 11:26:27;;;;;;;2.05;1.80;;;31.20;99.90;;;;;;5112303;27;20231;-77
2023/08/17 11:28:54;;;;;;;2.03;1.90;;;31.10;99.90;;;;;;5110095;27;20291;-77
2023/08/17 11:31:21;;;;;;;2.10;2.00;;;31.10;99.90;;;;;;5116405;27;20284;-77
2023/08/17 11:33:50;;;;;;;2.03;1.88;;;31.00;99.90;;;;;;5110097;27;20227;-78
2023/08/17 11:36:17;;;;;;;2.22;2.03;;;30.90;99.90;;;;;;5111666;27;20212;-78
2023/08/17 11:38:47;;;;;;;1.67;1.58;;;30.70;99.90;;;;;;5120920;27;20204;-77
2023/08/17 11:41:15;;;;;;;2.00;1.90;;;30.60;99.90;;;;;;5114678;27;20251;-78
2023/08/17 11:43:46;;;;;;;1.73;1.63;;;30.70;99.90;;;;;;5120207;27;20703;-77
2023/08/17 11:46:13;;;;;;;2.10;2.00;;;30.80;99.90;;;;;;5112481;27;20285;-78
2023/08/17 11:48:40;;;;;;;2.03;1.92;;;31.00;99.90;;;;;;5115221;27;20249;-77
2023/08/17 11:51:09;;;;;;;3.28;1.75;;;30.80;99.90;;;;;;5112401;27;20684;-78
2023/08/17 11:53:36;;;;;;;2.10;1.98;;;30.80;99.90;;;;;;5113272;27;20298;-78
2023/08/17 11:56:03;;;;;;;2.30;1.90;;;30.90;99.90;;;;;;5109256;27;20270;-77
2023/08/17 11:58:44;;;;;;;2.17;1.95;;;30.90;99.90;;;;;;5115837;27;20200;-78
2023/08/17 12:01:12;;;;;;;1.98;1.80;;;30.90;99.90;;;;;;5114307;27;20244;-78
2023/08/17 12:03:40;;;;;;;2.10;1.92;;;30.80;99.90;;;;;;5117432;27;20288;-78
2023/08/17 12:06:09;;;;;;;2.80;1.85;;;30.80;99.90;;;;;;5108974;27;20213;-77
2023/08/17 12:08:36;;;;;;;2.05;1.95;;;30.80;99.90;;;;;;5111618;27;20243;-77
2023/08/17 12:11:04;;;;;;;2.28;1.70;;;30.90;99.90;;;;;;5107919;27;20235;-78
2023/08/17 12:13:33;;;;;;;1.60;1.50;;;30.90;99.90;;;;;;5111812;27;20201;-79
2023/08/17 12:15:59;;;;;;;1.67;1.58;;;31.30;99.90;;;;;;5111025;27;20219;-77
2023/08/17 12:18:27;;;;;;;1.60;1.50;;;31.80;99.90;;;;;;5115099;27;20288;-77
2023/08/17 12:20:54;;;;;;;2.05;1.80;;;32.10;99.90;;;;;;5112151;27;20243;-79
2023/08/17 12:23:23;;;;;;;2.05;1.63;;;31.90;99.90;;;;;;5110664;27;21896;-79
2023/08/17 12:25:54;;;;;;;1.80;1.67;;;31.90;99.90;;;;;;5110648;27;20718;-78
2023/08/17 12:28:21;;;;;;;1.70;1.60;;;32.10;99.90;;;;;;5114046;27;20268;-78
2023/08/17 12:30:47;;;;;;;2.10;1.90;;;32.10;99.90;;;;;;5111178;27;20265;-78
2023/08/17 12:33:14;;;;;;;2.03;1.92;;;32.20;99.90;;;;;;5113502;27;20232;-79
2023/08/17 12:35:41;;;;;;;1.90;1.80;;;32.30;99.90;;;;;;5110312;27;20307;-78
2023/08/17 12:38:08;;;;;;;2.53;2.28;;;32.30;99.90;;;;;;5108092;27;20228;-79
2023/08/17 12:40:37;;;;;;;1.95;1.85;;;32.60;99.90;;;;;;5115383;27;20223;-80
2023/08/17 12:43:04;;;;;;;2.90;2.70;;;32.80;99.90;;;;;;5118601;27;20224;-79
2023/08/17 12:45:31;;;;;;;2.33;2.13;;;32.70;99.90;;;;;;5121714;27;20228;-79
2023/08/17 12:47:58;;;;;;;1.80;1.70;;;32.90;99.90;;;;;;5120256;27;20720;-79
2023/08/17 12:50:25;;;;;;;1.67;1.58;;;33.30;99.90;;;;;;5116873;27;20224;-78
2023/08/17 12:52:51;;;;;;;2.03;1.92;;;33.70;99.90;;;;;;5114305;27;20231;-81